Time;durP1;ratioP1;P1;durP2;ratioP2;P2;SDS_P1;SDS_P2;PMS_P1;PMS_P2;Temp;Humidity;BMP_temperature;BMP_pressure;BME280_temperature;BME280_humidity;BME280_pressure;Samples;Min_cycle;Max_cycle;Signal;HPM_P1;HPM_P2
2022/08/11 00:00:45;;;;;;;2.28;0.85;;;;;;;18.37;78.04;101490.84;5184215;28;20104;-74
2022/08/11 00:03:16;;;;;;;;;;;;;;;18.29;78.40;101485.94;5179675;28;20280;-74
2022/08/11 00:05:53;;;;;;;2.75;1.00;;;;;;;18.27;77.70;101487.81;5188317;28;19914;-74
2022/08/11 00:08:29;;;;;;;5.05;1.02;;;;;;;18.12;78.41;101480.63;5182061;28;20505;-73
2022/08/11 00:11:06;;;;;;;2.05;1.00;;;;;;;17.99;78.49;101484.00;5182453;28;20030;-74
2022/08/11 00:13:44;;;;;;;1.65;0.90;;;;;;;17.88;78.70;101486.34;5182036;28;20116;-74
2022/08/11 00:16:18;;;;;;;2.90;1.02;;;;;;;17.52;81.25;101480.25;5177675;28;20064;-73
2022/08/11 00:18:55;;;;;;;2.67;1.10;;;;;;;17.36;81.04;101479.28;5181801;28;20053;-74
2022/08/11 00:21:27;;;;;;;2.67;1.10;;;;;;;17.28;82.11;101478.78;5181943;28;20021;-73
2022/08/11 00:23:59;;;;;;;6.03;1.17;;;;;;;17.23;83.48;101475.50;5182481;28;20037;-74
2022/08/11 00:26:32;;;;;;;2.80;1.05;;;;;;;17.28;82.58;101484.91;5180852;28;20033;-73
2022/08/11 00:29:10;;;;;;;2.42;1.10;;;;;;;17.39;82.21;101489.72;5184286;28;20025;-73
2022/08/11 00:31:50;;;;;;;2.70;0.90;;;;;;;17.49;81.33;101490.97;5181863;28;20029;-73
2022/08/11 00:34:25;;;;;;;1.63;0.90;;;;;;;17.39;81.63;101485.28;5180374;28;20021;-74
2022/08/11 00:37:07;;;;;;;1.45;1.00;;;;;;;17.08;82.84;101497.34;5169897;28;20025;-74
2022/08/11 00:39:49;;;;;;;2.15;1.00;;;;;;;16.98;83.59;101498.75;5180708;28;20507;-74
2022/08/11 00:42:47;;;;;;;1.23;0.80;;;;;;;16.61;85.45;101489.94;5177905;28;20053;-74
2022/08/11 00:45:34;;;;;;;2.40;1.00;;;;;;;17.00;83.45;101495.06;5179216;28;20492;-74
2022/08/11 00:48:32;;;;;;;3.17;1.20;;;;;;;17.05;84.00;101498.38;5180315;28;20049;-73
2022/08/11 00:51:22;;;;;;;3.10;1.20;;;;;;;17.15;82.42;101485.59;5179591;28;20108;-73
2022/08/11 00:53:58;;;;;;;2.33;1.02;;;;;;;16.90;84.72;101493.81;5178367;28;20029;-74
2022/08/11 00:57:05;;;;;;;3.22;1.20;;;;;;;16.79;84.81;101493.44;5181399;28;20084;-73
2022/08/11 01:00:12;;;;;;;1.85;1.20;;;;;;;16.93;84.70;101498.06;5184929;28;20527;-74
2022/08/11 01:03:01;;;;;;;;;;;;;;;17.17;82.27;101492.50;5181758;28;20467;-74
2022/08/11 01:05:59;;;;;;;2.28;1.05;;;;;;;16.91;83.74;101494.66;5185102;28;19913;-72
2022/08/11 01:08:29;;;;;;;2.95;1.23;;;;;;;16.54;85.38;101497.28;5178436;28;20032;-74
2022/08/11 01:11:42;;;;;;;3.23;1.03;;;;;;;16.18;89.14;101495.41;5179686;28;20026;-74
2022/08/11 01:14:40;;;;;;;3.42;1.38;;;;;;;16.19;88.39;101497.97;5180546;28;20346;-74
2022/08/11 01:17:26;;;;;;;2.25;1.20;;;;;;;16.24;88.35;101501.25;5180072;28;20033;-73
2022/08/11 01:20:14;;;;;;;1.83;1.02;;;;;;;16.56;86.13;101494.59;5178748;28;20379;-74
2022/08/11 01:22:47;;;;;;;1.20;0.88;;;;;;;16.49;85.58;101496.63;5176839;28;20038;-74
2022/08/11 01:25:43;;;;;;;5.10;1.40;;;;;;;16.42;87.47;101496.97;5180963;28;20083;-73
2022/08/11 01:28:19;;;;;;;1.38;0.90;;;;;;;16.50;86.38;101497.47;5184722;28;20032;-73
2022/08/11 01:31:20;;;;;;;4.55;1.30;;;;;;;16.04;89.36;101493.34;5179524;28;20128;-73
2022/08/11 01:34:30;;;;;;;3.45;1.35;;;;;;;16.33;86.19;101497.34;5179690;28;20034;-74
2022/08/11 01:37:16;;;;;;;6.20;1.20;;;;;;;15.96;89.29;101497.25;5183674;28;20056;-74
2022/08/11 01:40:05;;;;;;;2.17;1.02;;;;;;;16.19;88.64;101490.03;5176708;28;20018;-74
2022/08/11 01:45:58;;;;;;;2.25;1.00;;;;;;;16.31;86.70;101507.97;5176868;28;20061;-74
2022/08/11 01:48:47;;;;;;;2.95;1.02;;;;;;;16.11;87.90;101507.13;5179761;28;20025;-74
2022/08/11 01:51:36;;;;;;;2.10;1.02;;;;;;;16.14;88.10;101502.59;5176847;28;20065;-74
2022/08/11 01:54:32;;;;;;;1.30;1.00;;;;;;;16.04;88.03;101503.91;5180201;28;20029;-74
2022/08/11 01:57:39;;;;;;;1.73;0.90;;;;;;;16.00;89.15;101506.72;5177026;28;20038;-74
2022/08/11 02:00:19;;;;;;;4.47;1.33;;;;;;;15.81;87.88;101508.44;5179031;28;20021;-74
2022/08/11 02:03:00;;;;;;;4.10;1.13;;;;;;;15.90;88.33;101514.16;5175430;28;20168;-74
2022/08/11 02:05:59;;;;;;;3.00;1.17;;;;;;;15.55;89.64;101514.78;5184860;28;20464;-73
2022/08/11 02:08:46;;;;;;;2.58;1.33;;;;;;;15.49;90.01;101509.78;5179559;28;20060;-74
2022/08/11 02:11:29;;;;;;;1.40;0.93;;;;;;;15.55;89.36;101514.78;5176611;28;20415;-74
2022/08/11 02:14:19;;;;;;;3.00;1.40;;;;;;;15.27;92.61;101508.91;5180271;28;20467;-74
2022/08/11 02:17:11;;;;;;;2.58;1.17;;;;;;;15.42;90.00;101508.31;5176730;28;20026;-74
2022/08/11 02:26:13;;;;;;;2.55;1.17;;;;;;;15.65;90.76;101500.31;5176476;28;20036;-74
2022/08/11 02:29:17;;;;;;;2.85;1.15;;;;;;;15.24;94.81;101510.78;5185220;28;20049;-73
2022/08/11 02:35:08;;;;;;;2.85;1.17;;;;;;;15.43;92.47;101503.88;5181611;28;20120;-74
2022/08/11 02:37:52;;;;;;;2.70;1.50;;;;;;;15.35;93.00;101506.84;5181699;28;20048;-73
2022/08/11 02:40:40;;;;;;;2.67;1.30;;;;;;;15.55;91.68;101508.66;5217477;23;20038;-72
2022/08/11 02:43:27;;;;;;;2.20;1.23;;;;;;;15.26;91.89;101507.19;5196632;28;20037;-72
2022/08/11 02:46:21;;;;;;;3.85;1.27;;;;;;;15.29;90.50;101499.19;5198058;28;20033;-72
2022/08/11 02:52:22;;;;;;;4.07;1.50;;;;;;;14.85;92.73;101504.44;5196953;28;20070;-72
2022/08/11 02:55:09;;;;;;;2.63;1.25;;;;;;;14.83;93.84;101504.50;5197065;28;20102;-72
2022/08/11 02:57:48;;;;;;;2.25;1.02;;;;;;;14.92;93.47;101501.53;5199046;28;20276;-72
2022/08/11 03:00:19;;;;;;;2.40;1.30;;;;;;;14.69;95.62;101499.81;5196888;28;20025;-72
2022/08/11 03:03:24;;;;;;;2.97;1.33;;;;;;;14.62;96.79;101506.22;5200285;28;20057;-72
2022/08/11 03:06:11;;;;;;;1.80;1.10;;;;;;;14.92;95.57;101511.19;5200533;28;20418;-72
2022/08/11 03:08:58;;;;;;;2.22;1.50;;;;;;;14.59;97.01;101508.97;5200083;28;20047;-71
2022/08/11 03:18:16;;;;;;;2.83;1.20;;;;;;;15.09;92.13;101507.00;5201445;28;20395;-72
2022/08/11 03:20:55;;;;;;;3.45;1.20;;;;;;;15.11;90.61;101507.78;5200013;28;20029;-72
2022/08/11 03:23:36;;;;;;;6.38;1.40;;;;;;;14.96;92.69;101507.50;5204318;28;20052;-72
2022/08/11 03:26:30;;;;;;;2.55;1.23;;;;;;;14.92;92.42;101509.41;5203515;28;20026;-71
2022/08/11 03:29:03;;;;;;;1.55;1.20;;;;;;;14.95;91.24;101506.66;5202949;28;20036;-72
2022/08/11 03:31:48;;;;;;;3.35;1.42;;;;;;;14.86;92.79;101512.25;5202422;28;20068;-72
2022/08/11 03:34:24;;;;;;;4.65;1.33;;;;;;;14.81;92.29;101512.50;5200431;28;20633;-72
2022/08/11 03:37:47;;;;;;;4.10;1.38;;;;;;;14.85;92.50;101509.72;5202651;28;20172;-72
2022/08/11 03:43:17;;;;;;;3.13;1.30;;;;;;;14.76;93.27;101509.19;5202897;28;20082;-72
2022/08/11 03:46:00;;;;;;;2.35;1.50;;;;;;;14.57;93.69;101508.16;5200064;28;20056;-72
2022/08/11 03:48:59;;;;;;;6.45;1.80;;;;;;;14.46;96.93;101505.06;5202797;28;20509;-72
2022/08/11 03:51:50;;;;;;;2.33;1.65;;;;;;;14.45;95.43;101508.63;5201046;28;20078;-71
2022/08/11 03:54:46;;;;;;;2.67;1.50;;;;;;;14.11;99.05;101513.31;5200696;28;20109;-72
2022/08/11 03:57:41;;;;;;;3.28;1.50;;;;;;;14.52;95.52;101513.59;5198927;28;20033;-71
2022/08/11 04:00:42;;;;;;;2.60;1.50;;;;;;;14.27;98.54;101510.13;5203029;28;20060;-72
2022/08/11 04:03:56;;;;;;;3.15;1.60;;;;;;;14.70;95.35;101514.66;5204896;28;20135;-72
2022/08/11 04:06:46;;;;;;;6.70;1.80;;;;;;;14.57;94.78;101513.44;5201056;28;20530;-72
2022/08/11 04:09:34;;;;;;;1.55;1.15;;;;;;;14.75;95.96;101510.13;5199536;28;20025;-72
2022/08/11 04:12:26;;;;;;;2.70;1.45;;;;;;;14.53;95.29;101511.81;5202942;28;20089;-72
2022/08/11 04:16:01;;;;;;;2.45;1.50;;;;;;;14.41;98.84;101514.91;5200856;28;20036;-72
2022/08/11 04:19:01;;;;;;;2.28;1.42;;;;;;;14.56;95.69;101511.72;5217133;28;20120;-72
2022/08/11 04:21:47;;;;;;;5.60;1.48;;;;;;;14.40;98.10;101510.56;5199812;28;20029;-72
2022/08/11 04:24:23;;;;;;;3.60;1.48;;;;;;;14.59;97.01;101503.72;5197993;28;20064;-72
2022/08/11 04:27:12;;;;;;;2.45;1.52;;;;;;;14.67;97.05;101512.16;5201531;28;20033;-72
2022/08/11 04:30:04;;;;;;;8.25;1.80;;;;;;;14.57;95.05;101514.28;5201994;28;20033;-72
2022/08/11 04:32:57;;;;;;;5.45;1.50;;;;;;;14.69;95.83;101512.94;5199853;28;20612;-72
2022/08/11 04:35:42;;;;;;;3.70;1.33;;;;;;;14.25;99.86;101511.94;5200568;28;20025;-72
2022/08/11 04:38:34;;;;;;;3.80;1.45;;;;;;;14.75;96.08;101510.13;5201639;28;20331;-71
2022/08/11 04:41:32;;;;;;;1.60;1.20;;;;;;;14.36;97.22;101512.44;5200447;28;20789;-72
2022/08/11 04:44:26;;;;;;;3.50;1.60;;;;;;;14.32;98.25;101508.22;5200582;28;20060;-73
2022/08/11 05:03:30;;;;;;;3.80;1.40;;;;;;;18.06;82.11;101493.31;5201265;28;20048;-73
2022/08/11 05:06:24;;;;;;;2.83;1.40;;;;;;;17.96;84.14;101502.66;5197721;28;20033;-73
2022/08/11 05:09:18;;;;;;;3.72;1.08;;;;;;;20.30;77.68;101492.91;5198265;28;20091;-73
2022/08/11 05:12:08;;;;;;;5.55;1.30;;;;;;;19.88;75.59;101488.34;5201011;28;20079;-73
2022/08/11 05:36:23;;;;;;;4.85;1.30;;;;;;;27.67;54.27;101478.19;5199995;28;20404;-73
2022/08/11 05:56:20;;;;;;;7.10;1.30;;;;;;;30.06;51.04;101477.84;5191023;28;20047;-71
2022/08/11 05:58:52;;;;;;;3.70;1.67;;;;;;;25.91;59.05;101494.09;5184366;28;20026;-71
2022/08/11 06:01:29;;;;;;;3.45;1.30;;;;;;;27.67;56.69;101478.19;5197962;28;20163;-71
2022/08/11 06:04:15;;;;;;;2.72;1.58;;;;;;;29.28;51.90;101480.44;5194735;28;20401;-71
2022/08/11 06:06:54;;;;;;;2.53;1.40;;;;;;;27.96;55.68;101476.34;5195356;28;20034;-71
2022/08/11 06:09:34;;;;;;;7.90;1.60;;;;;;;29.50;51.70;101484.56;5187222;28;20518;-71
2022/08/11 06:12:20;;;;;;;2.88;1.30;;;;;;;27.83;54.48;101486.56;5192279;28;20038;-73
2022/08/11 06:14:54;;;;;;;6.90;1.73;;;;;;;23.42;66.03;101500.75;5191849;28;20406;-73
2022/08/11 06:17:32;;;;;;;5.20;1.73;;;;;;;23.42;64.42;101506.09;5199347;28;20469;-73
2022/08/11 06:20:08;;;;;;;3.65;1.45;;;;;;;22.02;70.79;101492.22;5200263;28;20029;-72
2022/08/11 06:22:42;;;;;;;2.67;1.45;;;;;;;24.07;66.40;101491.31;5199367;28;20036;-73
2022/08/11 06:25:14;;;;;;;14.50;1.50;;;;;;;24.89;63.67;101483.88;5197256;28;20606;-72
2022/08/11 06:27:46;;;;;;;3.65;1.58;;;;;;;25.26;65.14;101485.31;5196389;28;20033;-73
2022/08/11 06:30:18;;;;;;;2.92;1.25;;;;;;;26.31;62.02;101479.00;5197468;28;20465;-72
2022/08/11 06:32:54;;;;;;;3.80;1.50;;;;;;;28.09;58.23;101474.22;5194668;28;20057;-72
2022/08/11 06:35:45;;;;;;;6.63;1.48;;;;;;;27.43;57.31;101483.13;5197501;28;20021;-72
2022/08/11 06:38:45;;;;;;;2.70;1.38;;;;;;;28.64;55.84;101478.75;5196363;28;20084;-72
2022/08/11 06:41:31;;;;;;;4.47;1.40;;;;;;;29.69;54.76;101477.16;5197933;28;20494;-72
2022/08/11 06:44:10;;;;;;;4.40;1.38;;;;;;;29.03;56.02;101486.53;5198054;28;20025;-72
2022/08/11 06:46:45;;;;;;;4.45;1.35;;;;;;;29.88;54.35;101479.69;5201081;28;20048;-72
2022/08/11 06:52:12;;;;;;;3.72;1.20;;;;;;;31.00;51.79;101483.16;5201791;28;20048;-72
2022/08/11 06:54:53;;;;;;;4.45;1.50;;;;;;;28.50;55.95;101494.53;5201886;28;20060;-72
2022/08/11 07:00:28;;;;;;;4.20;1.50;;;;;;;32.63;50.19;101474.81;5198353;28;20036;-72
2022/08/11 07:03:02;;;;;;;;;;;;;;;33.31;49.12;101472.16;5202248;28;20024;-72
2022/08/11 07:05:47;;;;;;;3.33;1.30;;;;;;;32.58;49.73;101478.03;5196939;28;19913;-72
2022/08/11 07:29:44;;;;;;;5.13;1.50;;;;;;;33.84;48.07;101474.03;5194236;28;20566;-72
2022/08/11 07:32:23;;;;;;;5.55;1.50;;;;;;;35.49;45.68;101468.75;5200915;28;20037;-72
2022/08/11 07:35:06;;;;;;;4.93;1.58;;;;;;;35.98;45.37;101460.63;5203374;28;20040;-72
2022/08/11 07:37:41;;;;;;;5.20;1.50;;;;;;;36.02;44.31;101468.22;5203171;28;20033;-71
2022/08/11 07:40:12;;;;;;;3.90;1.60;;;;;;;34.04;47.24;101473.31;5198914;28;20021;-71
2022/08/11 07:42:45;;;;;;;3.03;1.30;;;;;;;33.67;48.69;101462.41;5201204;28;20037;-72
2022/08/11 07:53:47;;;;;;;6.63;1.65;;;;;;;35.02;45.96;101464.78;5197623;28;20034;-72
2022/08/11 07:56:18;;;;;;;6.68;1.73;;;;;;;35.87;44.49;101459.28;5199104;28;20503;-72
2022/08/11 08:18:39;;;;;;;5.10;1.52;;;;;;;37.24;42.94;101469.22;5198759;28;20041;-72
2022/08/11 08:21:14;;;;;;;3.33;1.50;;;;;;;37.92;42.01;101469.78;5199013;28;20116;-72
2022/08/11 08:23:46;;;;;;;5.47;1.38;;;;;;;36.75;44.06;101465.84;5200065;28;20514;-72
2022/08/11 08:31:56;;;;;;;4.82;1.42;;;;;;;36.16;43.53;101464.56;5198864;28;20028;-71
2022/08/11 08:34:26;;;;;;;7.28;1.58;;;;;;;35.96;42.44;101460.00;5180811;28;20363;-71
2022/08/11 08:36:57;;;;;;;6.03;1.55;;;;;;;37.44;41.38;101453.72;5201937;28;20061;-71
2022/08/11 08:39:28;;;;;;;4.28;1.40;;;;;;;36.66;43.04;101456.13;5217730;22;20571;-77
2022/08/11 08:42:03;;;;;;;4.47;1.85;;;;;;;37.56;41.51;101452.94;5165252;28;20500;-77
2022/08/11 08:44:35;;;;;;;5.32;1.20;;;;;;;37.88;40.78;101446.66;5168532;28;20407;-76
2022/08/11 08:47:09;;;;;;;2.63;1.20;;;;;;;37.53;41.63;101445.16;5169496;28;20488;-76
2022/08/11 08:49:48;;;;;;;1.88;1.33;;;;;;;36.48;43.00;101447.59;5166724;28;20659;-76
2022/08/11 08:52:23;;;;;;;5.60;1.40;;;;;;;37.51;42.18;101435.50;5165752;28;20117;-77
2022/08/11 08:55:00;;;;;;;4.38;1.50;;;;;;;36.76;42.96;101442.13;5170406;28;20026;-74
2022/08/11 08:57:33;;;;;;;4.00;1.35;;;;;;;37.24;41.37;101431.00;5167752;28;20558;-76
2022/08/11 09:00:05;;;;;;;4.70;1.33;;;;;;;38.09;38.94;101426.50;5166711;28;20428;-74
2022/08/11 09:02:36;;;;;;;4.07;1.33;;;;;;;38.92;39.50;101426.53;5168720;28;20221;-76
2022/08/11 09:05:08;;;;;;;3.88;1.50;;;;;;;39.55;39.00;101429.94;5167823;28;20624;-77
2022/08/11 09:07:39;;;;;;;4.57;1.50;;;;;;;37.85;39.44;101429.84;5166279;28;20026;-77
2022/08/11 09:10:12;;;;;;;2.92;1.30;;;;;;;37.68;40.16;101432.16;5162825;28;20527;-75
2022/08/11 09:12:43;;;;;;;2.65;1.20;;;;;;;38.04;39.03;101431.75;5166538;28;20038;-77
2022/08/11 09:15:16;;;;;;;4.15;1.40;;;;;;;37.12;40.33;101432.66;5166069;28;20536;-76
2022/08/11 09:17:51;;;;;;;4.47;1.33;;;;;;;36.43;42.79;101433.75;5164292;28;20041;-74
2022/08/11 09:20:25;;;;;;;3.25;1.35;;;;;;;34.59;44.35;101441.22;5162990;28;20283;-76
2022/08/11 09:28:40;;;;;;;5.22;1.55;;;;;;;32.81;45.72;101424.84;5160330;28;20037;-76
2022/08/11 09:31:12;;;;;;;6.22;1.73;;;;;;;32.40;45.57;101420.53;5160032;28;20450;-75
2022/08/11 09:33:44;;;;;;;3.97;1.63;;;;;;;32.87;46.58;101418.69;5162596;28;20026;-75
2022/08/11 09:41:56;;;;;;;4.13;1.42;;;;;;;31.62;45.38;101404.22;5166150;28;20037;-75
2022/08/11 09:47:22;;;;;;;5.28;1.70;;;;;;;32.15;44.91;101408.09;5165364;28;20065;-76
2022/08/11 09:49:58;;;;;;;5.43;1.70;;;;;;;31.14;44.25;101410.44;5166059;28;20040;-76
2022/08/11 09:52:33;;;;;;;5.93;1.50;;;;;;;30.15;43.38;101414.00;5163914;28;20022;-75
2022/08/11 09:55:09;;;;;;;4.72;1.38;;;;;;;30.70;43.61;101412.63;5163818;28;20022;-76
2022/08/11 10:00:39;;;;;;;2.60;1.38;;;;;;;31.20;43.65;101401.66;5166263;28;20475;-76
2022/08/11 10:03:21;;;;;;;3.30;1.40;;;;;;;31.20;44.80;101390.00;5164034;28;20030;-76
2022/08/11 10:08:49;;;;;;;2.38;1.60;;;;;;;30.73;44.97;101391.53;5165609;28;20121;-75
2022/08/11 10:11:23;;;;;;;5.43;1.60;;;;;;;30.25;45.40;101385.91;5163852;28;20465;-75
2022/08/11 10:16:44;;;;;;;6.55;2.10;;;;;;;31.00;45.13;101370.50;5163531;28;20132;-76
2022/08/11 10:19:18;;;;;;;2.95;1.40;;;;;;;30.87;45.43;101372.84;5165469;28;20022;-75
2022/08/11 10:27:32;;;;;;;2.25;1.38;;;;;;;30.62;45.30;101366.69;5165473;28;20113;-75
2022/08/11 10:35:44;;;;;;;4.13;1.50;;;;;;;30.27;47.04;101361.47;5170294;28;20041;-75
2022/08/11 10:38:14;;;;;;;4.00;1.55;;;;;;;29.43;45.89;101362.19;5166417;28;20025;-75
2022/08/11 10:43:01;;;;;;;4.55;1.40;;;;;;;29.92;47.04;101357.00;5162070;28;20046;-76
2022/08/11 10:43:39;;;;;;;5.03;1.60;;;;;;;30.14;45.43;101356.50;5169272;28;20034;-75
2022/08/11 10:49:00;;;;;;;4.10;1.50;;;;;;;29.80;46.25;101343.97;5165926;28;20034;-75
2022/08/11 11:00:05;;;;;;;4.65;1.70;;;;;;;29.39;45.11;101347.34;5162245;28;20034;-75
2022/08/11 11:02:37;;;;;;;5.32;1.50;;;;;;;29.73;45.94;101340.22;5164108;28;20037;-75
2022/08/11 11:05:29;;;;;;;3.47;1.60;;;;;;;29.55;46.29;101337.53;5167782;28;20030;-75
2022/08/11 11:11:05;;;;;;;5.50;1.48;;;;;;;29.42;45.52;101333.53;5162944;28;20415;-75
2022/08/11 11:19:22;;;;;;;4.80;1.55;;;;;;;29.26;46.13;101330.72;5165247;28;20057;-75
2022/08/11 11:22:36;;;;;;;2.97;1.30;;;;;;;29.32;45.42;101330.09;5161279;28;20508;-75
2022/08/11 11:25:19;;;;;;;8.23;1.60;;;;;;;29.26;45.34;101330.72;5161810;28;20034;-75
2022/08/11 11:27:49;;;;;;;5.22;1.60;;;;;;;29.33;44.82;101329.06;5161731;28;20376;-75
2022/08/11 11:30:20;;;;;;;2.00;1.50;;;;;;;29.57;44.28;101318.53;5160672;28;20080;-74
2022/08/11 11:33:12;;;;;;;3.15;1.40;;;;;;;29.92;44.60;101315.72;5164960;28;20037;-76
2022/08/11 11:36:02;;;;;;;4.22;1.42;;;;;;;29.65;44.31;101314.06;5168853;28;20426;-74
2022/08/11 11:38:33;;;;;;;5.80;1.48;;;;;;;29.80;45.30;101308.91;5162055;28;20026;-74
2022/08/11 11:43:55;;;;;;;5.65;1.50;;;;;;;29.80;44.45;101309.78;5170081;28;20032;-75
2022/08/11 11:46:29;;;;;;;5.10;1.42;;;;;;;29.75;46.18;101309.38;5167766;28;20018;-75
2022/08/11 11:49:06;;;;;;;3.78;1.70;;;;;;;29.64;46.42;101311.50;5165337;28;20031;-75
2022/08/11 11:51:37;;;;;;;5.18;1.52;;;;;;;29.56;44.84;101311.47;5162131;28;20030;-75
2022/08/11 11:54:09;;;;;;;9.98;1.65;;;;;;;29.62;44.61;101310.81;5160894;28;20473;-75
2022/08/11 11:56:41;;;;;;;4.40;1.63;;;;;;;29.75;44.75;101305.84;5165570;28;20105;-75
2022/08/11 12:02:03;;;;;;;2.92;1.42;;;;;;;30.00;44.97;101299.56;5168151;28;20046;-76
2022/08/11 12:04:36;;;;;;;2.97;1.58;;;;;;;29.65;44.81;101295.19;5165515;28;20057;-75
2022/08/11 12:09:58;;;;;;;4.78;1.45;;;;;;;29.85;45.20;101282.28;5165707;28;20562;-75
2022/08/11 12:15:19;;;;;;;5.53;1.60;;;;;;;29.65;45.57;101280.84;5166916;28;20036;-75
2022/08/11 12:17:50;;;;;;;5.90;1.60;;;;;;;29.80;45.41;101276.56;5168885;28;20041;-75
2022/08/11 12:20:21;;;;;;;3.88;1.60;;;;;;;30.08;46.97;101276.22;5166917;28;20338;-75
2022/08/11 12:28:33;;;;;;;4.95;1.38;;;;;;;29.72;44.03;101277.34;5163037;28;20061;-74
2022/08/11 12:31:04;;;;;;;5.00;1.30;;;;;;;29.79;43.93;101272.16;5163630;28;20022;-74
2022/08/11 12:33:40;;;;;;;4.43;1.48;;;;;;;29.67;45.23;101263.50;5162850;28;21168;-75
2022/08/11 12:36:14;;;;;;;5.15;1.50;;;;;;;29.68;44.81;101261.66;5164530;28;20060;-75
2022/08/11 12:38:49;;;;;;;5.32;1.35;;;;;;;29.48;44.35;101263.72;5167120;28;20493;-75
2022/08/11 12:47:01;;;;;;;10.95;1.67;;;;;;;29.45;43.84;101247.00;5165726;28;20036;-75
2022/08/11 12:52:42;;;;;;;3.95;1.55;;;;;;;29.25;43.44;101240.13;5166349;28;20164;-75
2022/08/11 12:58:16;;;;;;;4.97;1.60;;;;;;;29.56;43.59;101230.59;5165718;28;20380;-75
2022/08/11 13:06:28;;;;;;;4.82;1.30;;;;;;;29.71;43.87;101218.22;5163548;28;20036;-74
2022/08/11 13:08:59;;;;;;;3.38;1.45;;;;;;;29.63;43.00;101216.31;5160309;28;20034;-74
2022/08/11 13:14:20;;;;;;;4.88;1.10;;;;;;;29.70;44.21;101209.28;5159318;28;20089;-76
2022/08/11 13:19:42;;;;;;;3.63;1.20;;;;;;;29.69;44.00;101207.59;5167297;28;20567;-75
2022/08/11 13:22:16;;;;;;;4.63;1.92;;;;;;;29.77;44.79;101201.38;5168918;28;20080;-75
2022/08/11 13:24:48;;;;;;;8.35;1.60;;;;;;;29.80;44.07;101211.84;5167091;28;20159;-75
2022/08/11 13:27:19;;;;;;;3.53;1.13;;;;;;;29.76;43.24;101205.09;5153705;28;20037;-75
2022/08/11 13:31:09;;;;;;;2.60;1.33;;;;;;;29.76;43.73;101205.09;5160191;28;20047;-75
2022/08/11 13:32:43;;;;;;;3.45;1.30;;;;;;;29.79;44.26;101200.22;5168967;28;20062;-75
2022/08/11 13:35:14;;;;;;;3.60;1.40;;;;;;;29.84;43.17;101197.03;5163437;28;20112;-75
2022/08/11 13:37:46;;;;;;;4.50;1.35;;;;;;;29.77;43.62;101190.59;5165199;28;20134;-75
2022/08/11 13:40:20;;;;;;;5.35;1.45;;;;;;;29.72;43.87;101182.16;5163178;28;20037;-76
2022/08/11 13:42:51;;;;;;;4.03;1.48;;;;;;;29.73;43.87;101186.53;5159601;28;20038;-75
2022/08/11 13:45:23;;;;;;;3.83;1.30;;;;;;;29.91;44.08;101195.38;5157227;28;20100;-75
2022/08/11 13:47:58;;;;;;;4.13;1.50;;;;;;;29.81;44.27;101181.19;5157414;28;20042;-76
2022/08/11 13:53:21;;;;;;;6.20;1.40;;;;;;;29.88;43.31;101199.25;5158232;28;20388;-75
2022/08/11 13:55:53;;;;;;;3.92;1.38;;;;;;;29.72;43.35;101185.69;5158805;28;20033;-75
2022/08/11 13:58:23;;;;;;;4.90;1.40;;;;;;;29.67;44.06;101187.16;5155866;28;20126;-75
2022/08/11 14:00:54;;;;;;;3.78;1.58;;;;;;;29.54;43.61;101184.09;5164968;28;20036;-75
2022/08/11 14:03:27;;;;;;;4.88;1.55;;;;;;;29.60;44.18;101183.44;5158047;28;20520;-75
2022/08/11 14:06:02;;;;;;;2.05;1.25;;;;;;;29.66;43.79;101175.56;5156438;28;20245;-76
2022/08/11 14:08:38;;;;;;;1.95;1.05;;;;;;;29.77;44.36;101172.56;5156166;28;20277;-74
2022/08/11 14:14:02;;;;;;;2.97;1.30;;;;;;;29.77;44.70;101163.63;5155957;28;20449;-75
2022/08/11 14:16:39;;;;;;;4.38;1.38;;;;;;;29.66;45.05;101158.53;5157590;28;20018;-73
2022/08/11 14:19:13;;;;;;;3.72;1.30;;;;;;;29.62;44.85;101165.25;5155257;28;20042;-72
2022/08/11 14:24:41;;;;;;;3.85;1.27;;;;;;;29.77;44.88;101158.25;5159321;28;20118;-75
2022/08/11 14:27:13;;;;;;;1.60;1.20;;;;;;;29.71;45.12;101153.53;5156423;28;20029;-75
2022/08/11 14:29:45;;;;;;;5.38;1.30;;;;;;;29.70;44.74;101159.88;5155965;28;20038;-76
2022/08/11 14:32:15;;;;;;;2.17;1.17;;;;;;;29.70;45.55;101151.81;5157405;28;20035;-76
2022/08/11 14:34:47;;;;;;;3.03;1.35;;;;;;;29.63;44.63;101156.16;5160857;28;20042;-76
2022/08/11 14:37:21;;;;;;;4.93;1.55;;;;;;;29.62;44.36;101157.19;5154585;28;20038;-75
2022/08/11 14:40:00;;;;;;;3.90;1.30;;;;;;;29.83;44.20;101147.66;5163099;28;20034;-75
2022/08/11 14:48:09;;;;;;;3.92;1.33;;;;;;;29.65;44.45;101148.75;5158337;28;20037;-74
2022/08/11 14:50:40;;;;;;;6.10;1.58;;;;;;;29.61;43.91;101153.63;5155499;28;20332;-74
2022/08/11 14:53:14;;;;;;;5.00;1.50;;;;;;;29.71;43.61;101145.44;5157099;28;20034;-72
2022/08/11 14:58:35;;;;;;;3.80;1.30;;;;;;;29.70;43.19;101132.94;5153953;28;20499;-75
2022/08/11 15:03:05;;;;;;;2.58;1.40;;;;;;;29.85;43.54;101123.22;5157473;28;20046;-75
2022/08/11 15:03:58;;;;;;;4.43;1.30;;;;;;;29.74;43.69;101124.38;5156971;28;20030;-75
2022/08/11 15:06:29;;;;;;;3.95;1.70;;;;;;;29.60;43.54;101134.94;5160285;28;20034;-75
2022/08/11 15:09:02;;;;;;;3.67;1.45;;;;;;;29.65;43.97;101121.81;5165352;28;20483;-75
2022/08/11 15:17:13;;;;;;;2.70;1.38;;;;;;;29.74;43.47;101107.34;5165000;28;20030;-75
2022/08/11 15:25:41;;;;;;;3.33;1.27;;;;;;;29.62;43.59;101111.34;5147136;28;20124;-75
2022/08/11 15:45:46;;;;;;;3.72;1.40;;;;;;;29.52;44.03;101102.53;5159264;28;20520;-76
2022/08/11 15:45:48;;;;;;;7.70;1.40;;;;;;;29.51;43.30;101095.47;5160290;28;20523;-75
2022/08/11 15:48:31;;;;;;;7.03;1.33;;;;;;;29.52;43.55;101099.84;5162192;28;20027;-75
2022/08/11 15:51:16;;;;;;;6.78;1.48;;;;;;;29.43;44.19;101101.63;5160742;28;20574;-75
2022/08/11 15:53:50;;;;;;;4.57;1.30;;;;;;;29.38;42.90;101092.38;5155793;28;20061;-75
2022/08/11 15:56:24;;;;;;;4.03;1.50;;;;;;;29.49;43.55;101089.41;5164753;28;20572;-75
2022/08/11 16:04:40;;;;;;;4.35;1.20;;;;;;;29.44;43.91;101092.53;5160655;28;20046;-75
2022/08/11 16:07:14;;;;;;;3.58;1.45;;;;;;;29.46;42.31;101084.31;5161793;28;20034;-75
2022/08/11 16:09:48;;;;;;;4.32;1.27;;;;;;;29.44;43.06;101078.25;5157559;28;20034;-75
2022/08/11 16:12:24;;;;;;;2.78;1.13;;;;;;;29.61;43.42;101088.94;5156360;28;20027;-75
2022/08/11 16:18:04;;;;;;;6.93;1.20;;;;;;;29.51;44.92;101087.38;5161257;28;20093;-75
2022/08/11 16:20:34;;;;;;;6.40;1.40;;;;;;;29.39;44.36;101084.09;5158301;28;20036;-75
2022/08/11 16:23:07;;;;;;;4.00;1.20;;;;;;;29.42;43.70;101074.88;5165369;28;20133;-75
2022/08/11 16:25:38;;;;;;;3.70;1.40;;;;;;;29.33;44.25;101084.78;5163767;28;20061;-75
2022/08/11 16:28:11;;;;;;;2.65;1.30;;;;;;;29.17;42.68;101078.44;5156979;28;20042;-75
2022/08/11 16:30:42;;;;;;;3.35;1.20;;;;;;;29.25;42.43;101081.19;5157594;28;20038;-75
2022/08/11 16:33:14;;;;;;;2.65;1.30;;;;;;;29.20;42.32;101070.06;5160854;28;20034;-73
2022/08/11 16:38:38;;;;;;;4.90;1.42;;;;;;;29.16;42.61;101072.22;5157138;28;20045;-75
2022/08/11 16:46:58;;;;;;;2.33;1.33;;;;;;;29.17;42.50;101070.38;5161825;28;20026;-75
2022/08/11 16:47:00;;;;;;;6.10;1.60;;;;;;;29.17;42.70;101073.91;5155697;28;20559;-75
2022/08/11 16:49:34;;;;;;;2.05;1.30;;;;;;;29.23;42.58;101056.28;5155348;28;20104;-74
2022/08/11 16:52:10;;;;;;;6.28;1.60;;;;;;;29.04;42.96;101070.81;5163982;28;20102;-75
2022/08/11 16:54:41;;;;;;;3.42;1.50;;;;;;;28.97;43.00;101066.22;5159907;28;20598;-75
2022/08/11 17:00:14;;;;;;;2.88;1.45;;;;;;;28.98;43.09;101066.06;5158842;28;20611;-75
2022/08/11 17:18:08;;;;;;;5.65;1.15;;;;;;;28.53;44.48;101061.03;5157749;28;21035;-75
2022/08/11 17:20:39;;;;;;;2.60;1.20;;;;;;;28.55;44.08;101054.50;5159497;28;20041;-75
2022/08/11 17:25:59;;;;;;;2.05;1.10;;;;;;;28.47;43.97;101057.13;5157566;28;20105;-75
2022/08/11 17:28:30;;;;;;;3.10;1.38;;;;;;;28.43;45.02;101053.06;5157748;28;20031;-75
2022/08/11 17:36:43;;;;;;;3.25;1.20;;;;;;;28.22;45.68;101057.91;5162956;28;20053;-75
2022/08/11 17:39:14;;;;;;;2.80;1.10;;;;;;;28.19;45.64;101062.72;5157665;28;20027;-74
2022/08/11 17:50:18;;;;;;;2.95;1.38;;;;;;;27.87;45.82;101063.28;5154607;28;20054;-75
2022/08/11 18:01:20;;;;;;;5.55;1.63;;;;;;;27.44;48.31;101062.28;5154563;28;20041;-75